createdAt,value
2023-04-25T00:00:28.399Z,98647.48
2023-04-25T00:05:52.952Z,98643.09
2023-04-25T00:10:56.321Z,98646.75
2023-04-25T00:16:01.395Z,98650.52
2023-04-25T00:21:07.452Z,98640.63
2023-04-25T00:26:10.756Z,98640.98
2023-04-25T00:31:14.630Z,98639.02
2023-04-25T00:36:18.518Z,98637.26
2023-04-25T00:41:22.330Z,98637.05
2023-04-25T00:46:25.677Z,98636.42
2023-04-25T00:51:29.869Z,98631.08
2023-04-25T00:56:33.181Z,98629.48
2023-04-25T01:01:37.109Z,98630.00
2023-04-25T01:06:41.749Z,98629.95
2023-04-25T01:11:45.069Z,98627.50
2023-04-25T01:16:49.371Z,98628.55
2023-04-25T01:21:53.111Z,98634.28
2023-04-25T01:27:01.475Z,98625.65
2023-04-25T01:32:06.861Z,98623.70
2023-04-25T01:37:10.218Z,98622.20
2023-04-25T01:42:14.447Z,98619.62
2023-04-25T01:47:17.962Z,98622.92
2023-04-25T01:52:21.578Z,98623.70
2023-04-25T01:57:25.206Z,98618.91
2023-04-25T02:02:28.730Z,98619.08
2023-04-25T02:07:33.664Z,98615.08
2023-04-25T02:12:37.386Z,98610.43
2023-04-25T02:17:40.807Z,98609.95
2023-04-25T02:22:44.418Z,98610.73
2023-04-25T02:27:48.863Z,98603.10
2023-04-25T02:32:52.427Z,98598.40
2023-04-25T02:37:55.990Z,98604.77
2023-04-25T02:42:59.519Z,98595.86
2023-04-25T02:48:04.321Z,98601.23
2023-04-25T02:53:07.870Z,98601.02
2023-04-25T02:58:11.589Z,98590.84
2023-04-25T03:03:16.283Z,98596.73
2023-04-25T03:08:20.254Z,98602.13
2023-04-25T03:13:23.666Z,98603.19
2023-04-25T03:18:27.083Z,98602.23
2023-04-25T03:23:30.697Z,98600.46
2023-04-25T03:28:34.213Z,98600.91
2023-04-25T03:33:37.584Z,98605.34
2023-04-25T03:38:42.586Z,98602.77
2023-04-25T03:43:46.303Z,98602.67
2023-04-25T03:48:49.821Z,98604.27
2023-04-25T03:53:53.799Z,98607.52
2023-04-25T03:58:57.062Z,98606.98
2023-04-25T04:04:00.782Z,98605.08
2023-04-25T04:09:04.699Z,98608.03
2023-04-25T04:14:09.131Z,98610.59
2023-04-25T04:19:12.474Z,98619.60
2023-04-25T04:24:18.005Z,98619.08
2023-04-25T04:29:24.308Z,98623.68
2023-04-25T04:34:28.416Z,98627.90
2023-04-25T04:39:32.044Z,98628.98
2023-04-25T04:44:35.653Z,98625.73
2023-04-25T04:49:39.062Z,98625.61
2023-04-25T04:54:42.485Z,98625.94
2023-04-25T04:59:46.306Z,98625.79
2023-04-25T05:04:49.897Z,98624.69
2023-04-25T05:09:53.564Z,98628.70
2023-04-25T05:14:57.032Z,98629.60
2023-04-25T05:20:00.584Z,98628.28
2023-04-25T05:25:04.877Z,98629.83
2023-04-25T05:30:10.163Z,98634.23
2023-04-25T05:35:13.705Z,98632.88
2023-04-25T05:40:17.136Z,98632.84
2023-04-25T05:45:20.620Z,98627.95
2023-04-25T05:50:23.937Z,98630.14
2023-04-25T05:55:27.346Z,98632.00
2023-04-25T06:00:30.908Z,98636.63
2023-04-25T06:05:34.488Z,98640.45
2023-04-25T06:10:38.795Z,98638.59
2023-04-25T06:15:42.325Z,98642.45
2023-04-25T06:20:45.830Z,98648.32
2023-04-25T06:25:49.539Z,98654.45
2023-04-25T06:30:52.954Z,98658.45
2023-04-25T06:35:56.489Z,98660.05
2023-04-25T06:40:59.994Z,98661.74
2023-04-25T06:46:03.610Z,98660.24
2023-04-25T06:51:07.121Z,98661.02
2023-04-25T06:56:11.454Z,98664.30
2023-04-25T07:01:15.566Z,98665.73
2023-04-25T07:06:19.209Z,98670.20
2023-04-25T07:11:22.735Z,98674.58
2023-04-25T07:16:26.165Z,98678.33
2023-04-25T07:21:29.862Z,98682.73
2023-04-25T07:26:33.580Z,98693.02
2023-04-25T07:31:37.526Z,98705.65
2023-04-25T07:36:41.430Z,98706.08
2023-04-25T07:41:44.865Z,98706.37
2023-04-25T07:46:48.560Z,98714.25
2023-04-25T07:51:52.180Z,98718.05
2023-04-25T07:56:56.004Z,98725.77
2023-04-25T08:01:59.419Z,98733.83
2023-04-25T08:07:02.938Z,98739.15
2023-04-25T08:12:06.757Z,98743.90
2023-04-25T08:17:11.294Z,98749.00
2023-04-25T08:22:15.814Z,98758.15
2023-04-25T08:27:22.204Z,98768.53
2023-04-25T08:32:25.647Z,98773.84
2023-04-25T08:37:28.946Z,98779.70
2023-04-25T08:42:34.353Z,98783.40
2023-04-25T08:47:39.818Z,98791.86
2023-04-25T08:52:50.799Z,98795.05
2023-04-25T08:57:56.099Z,98800.67
2023-04-25T09:03:00.826Z,98811.07
2023-04-25T09:08:04.442Z,98810.78
2023-04-25T09:13:07.898Z,98818.48
2023-04-25T09:18:11.275Z,98821.23
2023-04-25T09:23:16.499Z,98825.98
2023-04-25T09:28:29.268Z,98834.23
2023-04-25T09:33:38.337Z,98836.73
2023-04-25T09:38:46.868Z,98841.58
2023-04-25T09:43:51.614Z,98845.08
2023-04-25T09:48:55.264Z,98851.89
2023-04-25T09:53:58.841Z,98853.55
2023-04-25T09:59:04.225Z,98857.73
2023-04-25T10:04:12.391Z,98863.44
2023-04-25T10:09:19.346Z,98865.40
2023-04-25T10:14:23.655Z,98866.66
2023-04-25T10:19:28.198Z,98865.86
2023-04-25T10:24:32.942Z,98870.92
2023-04-25T10:29:36.761Z,98873.13
2023-04-25T10:34:44.167Z,98878.72
2023-04-25T10:39:47.990Z,98884.79
2023-04-25T10:45:06.912Z,98887.14
2023-04-25T10:50:10.738Z,98882.16
2023-04-25T10:55:14.354Z,98888.44
2023-04-25T11:00:20.282Z,98890.36
2023-04-25T11:05:33.161Z,98893.55
2023-04-25T11:10:38.194Z,98904.63
2023-04-25T11:15:41.797Z,98913.52
2023-04-25T11:20:45.934Z,98908.11
2023-04-25T11:25:51.072Z,98914.96
2023-04-25T11:30:54.485Z,98916.56
2023-04-25T11:35:58.105Z,98919.51
2023-04-25T11:41:02.170Z,98926.70
2023-04-25T11:46:09.520Z,98930.56
2023-04-25T11:51:13.302Z,98931.02
2023-04-25T11:56:16.781Z,98929.64
2023-04-25T12:01:35.194Z,98927.98
2023-04-25T12:06:43.577Z,98921.19
2023-04-25T12:11:50.055Z,98923.20
2023-04-25T12:16:54.102Z,98914.46
2023-04-25T12:21:59.411Z,98917.39
2023-04-25T12:27:04.442Z,98924.00
2023-04-25T12:32:07.839Z,98929.09
2023-04-25T12:37:11.664Z,98925.82
2023-04-25T12:42:15.210Z,98924.45
2023-04-25T12:47:18.699Z,98924.52
2023-04-25T12:52:22.022Z,98912.86
2023-04-25T12:57:25.826Z,98917.11
2023-04-25T13:02:29.465Z,98921.63
2023-04-25T13:07:34.148Z,98919.21
2023-04-25T13:12:39.373Z,98922.19
2023-04-25T13:17:43.697Z,98923.49
2023-04-25T13:22:47.441Z,98924.59
2023-04-25T13:27:50.989Z,98923.35
2023-04-25T13:32:57.520Z,98919.84
2023-04-25T13:38:01.988Z,98921.34
2023-04-25T13:43:05.891Z,98916.02
2023-04-25T13:48:09.636Z,98917.66
2023-04-25T13:53:13.417Z,98917.02
2023-04-25T13:58:17.003Z,98916.80
2023-04-25T14:03:20.709Z,98912.86
2023-04-25T14:08:24.228Z,98908.98
2023-04-25T14:13:28.114Z,98912.41
2023-04-25T14:18:31.352Z,98919.92
2023-04-25T14:23:34.881Z,98921.05
2023-04-25T14:28:38.387Z,98919.77
2023-04-25T14:33:43.939Z,98921.90
2023-04-25T14:38:47.921Z,98923.66
2023-04-25T14:43:51.810Z,98926.34
2023-04-25T14:48:57.189Z,98931.95
2023-04-25T14:54:00.882Z,98930.63
2023-04-25T14:59:04.498Z,98937.83
2023-04-25T15:04:08.264Z,98942.52
2023-04-25T15:09:26.331Z,98942.17
2023-04-25T15:14:30.503Z,98947.04
2023-04-25T15:19:34.026Z,98940.61
2023-04-25T15:24:37.850Z,98938.16
2023-04-25T15:29:41.562Z,98934.87
2023-04-25T15:34:44.964Z,98941.18
2023-04-25T15:39:48.522Z,98945.75
2023-04-25T15:44:52.118Z,98942.92
2023-04-25T15:49:55.853Z,98939.75
2023-04-25T15:54:59.452Z,98940.31
2023-04-25T16:00:17.433Z,98944.97
2023-04-25T16:05:30.446Z,98946.83
2023-04-25T16:10:33.940Z,98940.22
2023-04-25T16:15:37.609Z,98945.44
2023-04-25T16:20:41.296Z,98948.76
2023-04-25T16:25:44.767Z,98949.02
2023-04-25T16:30:48.224Z,98948.02
2023-04-25T16:35:52.883Z,98953.77
2023-04-25T16:40:57.097Z,98955.98
2023-04-25T16:46:01.429Z,98959.77
2023-04-25T16:51:05.605Z,98960.27
2023-04-25T16:56:09.176Z,98964.09
2023-04-25T17:01:16.362Z,98975.60
2023-04-25T17:06:19.996Z,98979.44
2023-04-25T17:11:28.332Z,98977.47
2023-04-25T17:16:38.824Z,98977.23
2023-04-25T17:21:42.739Z,98978.98
2023-04-25T17:26:48.610Z,98982.64
2023-04-25T17:31:53.817Z,98984.42
2023-04-25T17:36:57.271Z,98992.59
2023-04-25T17:42:01.163Z,98992.13
2023-04-25T17:47:06.086Z,98996.24
2023-04-25T17:52:11.311Z,98999.84
2023-04-25T17:57:14.698Z,99005.16
2023-04-25T18:02:18.523Z,99014.92
2023-04-25T18:07:22.160Z,99022.73
2023-04-25T18:12:27.927Z,99029.48
2023-04-25T18:17:31.612Z,99029.24
2023-04-25T18:22:36.290Z,99036.23
2023-04-25T18:27:41.003Z,99042.52
2023-04-25T18:32:44.912Z,99048.91
2023-04-25T18:37:48.777Z,99056.41
2023-04-25T18:42:52.404Z,99063.55
2023-04-25T18:47:56.062Z,99064.36
2023-04-25T18:53:00.764Z,99075.55
2023-04-25T18:58:04.180Z,99082.83
2023-04-25T19:03:08.046Z,99097.17
2023-04-25T19:08:11.921Z,99104.36
2023-04-25T19:13:15.331Z,99113.41
2023-04-25T19:18:18.952Z,99124.67
2023-04-25T19:23:25.697Z,99138.50
2023-04-25T19:28:30.663Z,99147.39
2023-04-25T19:33:34.055Z,99154.66
2023-04-25T19:38:37.354Z,99158.13
2023-04-25T19:43:40.752Z,99163.02
2023-04-25T19:48:44.471Z,99168.42
2023-04-25T19:53:47.849Z,99166.21
2023-04-25T19:58:51.709Z,99165.20
2023-04-25T20:03:56.342Z,99167.63
2023-04-25T20:08:59.885Z,99169.82
2023-04-25T20:14:05.732Z,99170.47
2023-04-25T20:19:09.024Z,99170.81
2023-04-25T20:24:12.336Z,99167.04
2023-04-25T20:29:16.010Z,99169.84
2023-04-25T20:34:21.836Z,99167.20
2023-04-25T20:39:34.568Z,99169.55
2023-04-25T20:44:40.988Z,99168.23
2023-04-25T20:49:44.382Z,99172.82
2023-04-25T20:54:54.395Z,99173.75
2023-04-25T20:59:58.510Z,99171.60
2023-04-25T21:05:06.977Z,99163.19
2023-04-25T21:10:12.935Z,99157.81
2023-04-25T21:15:28.617Z,99157.35
2023-04-25T21:20:32.891Z,99162.52
2023-04-25T21:25:59.985Z,99158.98
2023-04-25T21:31:12.001Z,99149.81
2023-04-25T21:36:41.740Z,99146.34
2023-04-25T21:41:51.237Z,99147.27
2023-04-25T21:47:16.085Z,99149.70
2023-04-25T21:52:25.335Z,99146.58
2023-04-25T21:57:29.933Z,99152.44
2023-04-25T22:02:34.784Z,99153.51
2023-04-25T22:08:04.377Z,99153.44
2023-04-25T22:13:50.618Z,99154.21
2023-04-25T22:19:26.030Z,99146.37
2023-04-25T22:24:56.081Z,99148.11
2023-04-25T22:30:59.474Z,99146.99
2023-04-25T22:36:11.834Z,99143.64
2023-04-25T22:41:22.218Z,99148.52
2023-04-25T22:46:29.313Z,99146.41
2023-04-25T22:51:34.206Z,99145.39
2023-04-25T22:56:39.776Z,99145.23
2023-04-25T23:01:50.448Z,99141.61
2023-04-25T23:06:54.330Z,99147.09
2023-04-25T23:11:59.289Z,99144.90
2023-04-25T23:17:02.676Z,99139.92
2023-04-25T23:22:06.301Z,99138.31
2023-04-25T23:27:09.899Z,99142.38
2023-04-25T23:32:13.874Z,99140.08
2023-04-25T23:37:17.248Z,99143.68
2023-04-25T23:42:20.753Z,99145.66
2023-04-25T23:47:24.160Z,99144.13
2023-04-25T23:52:28.634Z,99141.64
2023-04-25T23:57:32.553Z,99147.81
